Bei Facebook empfehlenBei Twitter postenGoogle plusPinterest

Das Wetter im Erzgebirge am 15.05.2015

Wetter und Klima am 15.05.2015 Holzhau im Erzgebirge (630m ü.NN)
Letzte gemessene Temperatur und Uhrzeit der Messung23:45:00 Uhr2.70 °C
Temperatur (Maximum / Höchstwert) und Uhrzeit der Messung15:45:00 Uhr17.70 °C
Temperatur (Minimum / Tiefstwert) und Uhrzeit der Messung05:30:00-1.40 °C
Errechneter Absolutwert der Temperaturschwankungen zwischen Tmin und Tmax des Tages19.10 K
Errechnete Tagesmitteltemperatur8.85625 °C
Gesamt - Niederschlag des Tages (in flüssiger Form)0.00 Liter / m²
Luftdruck (Maximum / Höchstwert) und Zeitpunkt der Messung23:45:00 Uhr1017.20 hPa
Luftdruck (Minimum / Tiefstwert) und Zeitpunkt der Messung05:00:00 Uhr1010.00 hPa
Errechneter Absolutwert der Luftdruckschwankungen des Tages7.20 hPa
Höchste gemessene Windgeschwindigkeit und Uhrzeit der Messung03:00:00 Uhr8.28 km/h
Errechnete Windhäufigkeit in Relation zu den Messwerten des Tages4.16667 %
Niedrigste Windkühle (Windchill) und Zeitpunkt der Messung03:00:00 Uhr-3.40 °C
Taupunkt (Maximum / Höchstwert) und Uhrzeit der Messung13:00:00 Uhr7.80 °C
Taupunkt (Minimum / Tiefstwert) und Uhrzeit der Messung05:15:00-2.90 °C
Anzahl der automatisch eingelesenen Messwerte 96

Detaillierte Wetter- und Klima- Messwerte für den 15.05.2015 in Holzhau im Erzgebirge (630m ü.NN)
ZeitTemperaturLuftdruckRel. LuftfeuchteWindWindrichtungWindchillTaupunktNiederschlag l/m²
23:45:002.70 °C1017.20 hPa81.00 %-0.20 °C 
23:30:003.10 °C1017.00 hPa80.00 %0.00 °C 
23:15:003.40 °C1016.70 hPa79.00 %0.10 °C 
23:00:003.70 °C1016.70 hPa79.00 %0.40 °C 
22:45:004.10 °C1016.60 hPa78.00 %0.60 °C 
22:30:004.40 °C1016.60 hPa76.00 %0.60 °C 
22:15:004.80 °C1016.30 hPa75.00 %0.80 °C 
22:00:005.10 °C1016.10 hPa74.00 %0.90 °C 
21:45:005.50 °C1016.10 hPa71.00 %0.70 °C 
21:30:006.10 °C1016.00 hPa69.00 %0.90 °C 
21:15:006.90 °C1015.70 hPa65.00 %0.80 °C 
21:00:008.10 °C1015.30 hPa61.00 %1.00 °C 
20:45:009.60 °C1015.20 hPa58.00 %1.80 °C 
20:30:0011.10 °C1015.00 hPa54.00 %2.20 °C 
20:15:0012.80 °C1015.10 hPa50.00 %2.60 °C 
20:00:0013.90 °C1014.90 hPa47.00 %2.80 °C 
19:45:0014.40 °C1014.80 hPa45.00 %2.60 °C 
19:30:0014.90 °C1014.70 hPa45.00 %3.10 °C 
19:15:0015.30 °C1014.40 hPa43.00 %2.80 °C 
19:00:0015.80 °C1014.20 hPa42.00 %2.90 °C 
18:45:0016.00 °C1014.10 hPa42.00 %3.10 °C 
18:30:0016.30 °C1013.80 hPa42.00 %3.40 °C 
18:15:0016.60 °C1013.80 hPa42.00 %3.60 °C 
18:00:0016.90 °C1013.70 hPa42.00 %3.90 °C 
17:45:0017.10 °C1013.40 hPa42.00 %4.10 °C 
17:30:0017.10 °C1013.40 hPa41.00 %3.80 °C 
17:15:0016.80 °C1013.40 hPa44.00 %4.50 °C 
17:00:0016.20 °C1013.50 hPa45.00 %4.30 °C 
16:45:0016.30 °C1013.40 hPa44.00 %4.00 °C 
16:30:0016.60 °C1013.40 hPa41.00 %3.30 °C 
16:15:0017.10 °C1013.20 hPa41.00 %3.80 °C 
16:00:0017.60 °C1013.30 hPa43.00 %4.90 °C 
15:45:0017.70 °C1013.10 hPa46.00 %5.90 °C 
15:30:0017.60 °C1013.00 hPa47.00 %6.20 °C 
15:15:0016.80 °C1013.10 hPa47.00 %5.40 °C 
15:00:0016.90 °C1013.00 hPa47.00 %4.68 km/hSSO16.90 °C5.50 °C 
14:45:0017.10 °C1012.90 hPa50.00 %6.60 °C 
14:30:0017.00 °C1012.80 hPa50.00 %6.50 °C 
14:15:0016.60 °C1012.70 hPa50.00 %6.10 °C 
14:00:0016.90 °C1012.50 hPa50.00 %6.40 °C 
13:45:0017.00 °C1012.40 hPa52.00 %7.10 °C 
13:30:0017.20 °C1012.40 hPa51.00 %7.00 °C 
13:15:0017.50 °C1012.40 hPa52.00 %7.50 °C 
13:00:0017.20 °C1012.50 hPa54.00 %7.80 °C 
12:45:0016.50 °C1012.50 hPa54.00 %6.84 km/hN16.80 °C7.20 °C 
12:30:0016.00 °C1012.50 hPa54.00 %6.70 °C 
12:15:0015.90 °C1012.30 hPa55.00 %6.90 °C 
12:00:0016.30 °C1012.30 hPa52.00 %6.40 °C 
11:45:0016.30 °C1012.40 hPa54.00 %7.00 °C 
11:30:0015.90 °C1012.30 hPa53.00 %6.30 °C 
11:15:0015.30 °C1012.00 hPa53.00 %5.80 °C 
11:00:0014.30 °C1012.10 hPa51.00 %4.30 °C 
10:45:0013.80 °C1012.10 hPa51.00 %3.90 °C 
10:30:0013.80 °C1011.50 hPa51.00 %3.90 °C 
10:15:0014.00 °C1011.50 hPa53.00 %4.60 °C 
10:00:0013.80 °C1011.50 hPa57.00 %5.40 °C 
09:45:0013.40 °C1011.30 hPa61.00 %6.00 °C 
09:30:0012.80 °C1011.20 hPa65.00 %6.40 °C 
09:15:0012.30 °C1011.30 hPa67.00 %6.40 °C 
09:00:0011.80 °C1011.30 hPa68.00 %6.10 °C 
08:45:0011.40 °C1011.20 hPa73.00 %6.70 °C 
08:30:0010.80 °C1011.30 hPa76.00 %6.70 °C 
08:15:009.80 °C1011.10 hPa80.00 %6.50 °C 
08:00:008.40 °C1011.20 hPa83.00 %5.70 °C 
07:45:006.50 °C1011.00 hPa87.00 %4.50 °C 
07:30:004.90 °C1010.80 hPa90.00 %3.40 °C 
07:15:003.00 °C1010.80 hPa91.00 %1.70 °C 
07:00:001.20 °C1010.80 hPa91.00 %-0.10 °C 
06:45:000.40 °C1010.60 hPa91.00 %-0.90 °C 
06:30:00-0.20 °C1010.50 hPa91.00 %-1.60 °C 
06:15:00-0.60 °C1010.40 hPa91.00 %-2.00 °C 
06:00:00-0.90 °C1010.50 hPa91.00 %-2.30 °C 
05:45:00-1.10 °C1010.50 hPa91.00 %-2.50 °C 
05:30:00-1.40 °C1010.10 hPa91.00 %-2.80 °C 
05:15:00-1.30 °C1010.30 hPa90.00 %-2.90 °C 
05:00:00-1.10 °C1010.00 hPa90.00 %-2.70 °C 
04:45:00-0.90 °C1010.30 hPa90.00 %-2.50 °C 
04:30:00-0.90 °C1010.30 hPa90.00 %-2.50 °C 
04:15:00-1.00 °C1010.30 hPa90.00 %-2.60 °C 
04:00:00-0.90 °C1010.40 hPa90.00 %-2.50 °C 
03:45:00-0.90 °C1010.50 hPa90.00 %-2.50 °C 
03:30:00-0.80 °C1010.50 hPa90.00 %-2.40 °C 
03:15:00-0.40 °C1010.40 hPa90.00 %-2.00 °C 
03:00:00-0.50 °C1010.30 hPa90.00 %8.28 km/hOSO-3.40 °C-2.10 °C 
02:45:00-0.20 °C1010.40 hPa90.00 %-1.80 °C 
02:30:00-0.20 °C1010.40 hPa89.00 %4.68 km/hOSO-0.20 °C-2.00 °C 
02:15:00-0.10 °C1010.60 hPa89.00 %-1.90 °C 
02:00:00-0.10 °C1010.60 hPa89.00 %-1.90 °C 
01:45:00-0.10 °C1010.60 hPa89.00 %-1.90 °C 
01:30:000.10 °C1010.60 hPa89.00 %-1.50 °C 
01:15:000.10 °C1010.70 hPa88.00 %-1.60 °C 
01:00:000.20 °C1010.70 hPa88.00 %-1.50 °C 
00:45:000.40 °C1010.70 hPa88.00 %-1.30 °C 
00:30:000.60 °C1010.60 hPa87.00 %-1.30 °C 
00:15:000.90 °C1010.70 hPa87.00 %-1.00 °C 
00:00:001.10 °C1010.80 hPa87.00 %-0.80 °C 

Permanenter Link zu dieser Seite: Wetter im Erzgebirge am 15.05.2015
Performance-Info: Die Erstellung der Seite / Statistik(en) / Tabelle(n) erforderte 5 Datenbankserver-Abfrage(n) und dauerte 103 Millisekunden. (Dieser Messwert ist von der Gesamt-Auslastung des Servers abhängig.)
Erzgebirge - Wetter | Erzgebirge - Wetter (Mobilgeräte) | Komplette Klimadatenbank